Time;durP1;ratioP1;P1;durP2;ratioP2;P2;SDS_P1;SDS_P2;PMS_P1;PMS_P2;Temp;Humidity;BMP_temperature;BMP_pressure;BME280_temperature;BME280_humidity;BME280_pressure;Samples;Min_cycle;Max_cycle;Signal;HPM_P1;HPM_P2
2023/11/10 00:01:47;;;;;;;4.73;2.00;;;8.50;5.00;;;;;;4974543;28;20977;-67
2023/11/10 00:04:14;;;;;;;1.93;1.13;;;8.50;5.20;;;;;;4991148;28;20211;-67
2023/11/10 00:06:40;;;;;;;2.03;1.33;;;8.50;5.80;;;;;;4992944;28;20175;-67
2023/11/10 00:09:06;;;;;;;2.37;1.30;;;8.60;5.90;;;;;;4993074;28;20416;-68
2023/11/10 00:11:32;;;;;;;4.23;1.50;;;8.60;6.50;;;;;;4992957;28;20544;-67
2023/11/10 00:13:58;;;;;;;2.37;1.50;;;8.60;7.40;;;;;;4991771;28;20454;-67
2023/11/10 00:16:23;;;;;;;2.27;1.37;;;8.60;6.90;;;;;;4993401;28;20183;-67
2023/11/10 00:18:49;;;;;;;1.87;0.80;;;8.60;6.50;;;;;;4992114;28;20602;-67
2023/11/10 00:21:22;;;;;;;9.00;1.40;;;8.70;6.70;;;;;;4991624;28;20191;-67
2023/11/10 00:23:48;;;;;;;2.87;1.23;;;8.80;5.20;;;;;;4991890;28;20258;-67
2023/11/10 00:26:20;;;;;;;2.00;0.73;;;9.00;4.80;;;;;;4991852;28;20426;-68
2023/11/10 00:28:46;;;;;;;2.57;0.87;;;9.20;4.40;;;;;;4991794;28;20171;-67
2023/11/10 00:31:11;;;;;;;2.33;0.97;;;9.20;3.90;;;;;;4991502;28;20982;-68
2023/11/10 00:33:37;;;;;;;2.80;0.97;;;9.30;3.80;;;;;;4991597;28;20720;-67
2023/11/10 00:36:03;;;;;;;1.73;0.80;;;9.30;6.40;;;;;;4991664;28;20490;-68
2023/11/10 00:38:29;;;;;;;2.53;1.27;;;9.20;8.20;;;;;;4991810;28;20610;-68
2023/11/10 00:40:55;;;;;;;2.00;1.00;;;9.00;9.80;;;;;;4991821;28;20446;-68
2023/11/10 00:43:20;;;;;;;2.67;1.00;;;9.00;10.90;;;;;;4976012;28;20310;-68
2023/11/10 00:45:46;;;;;;;1.90;0.80;;;8.90;12.20;;;;;;4995237;28;20179;-68
2023/11/10 00:48:11;;;;;;;1.67;0.90;;;8.90;11.50;;;;;;4995443;28;20175;-69
2023/11/10 00:50:37;;;;;;;2.07;1.17;;;8.80;13.00;;;;;;4995170;28;20258;-68
2023/11/10 00:53:03;;;;;;;2.37;1.17;;;8.80;13.60;;;;;;4996652;28;20185;-68
2023/11/10 00:55:28;;;;;;;3.50;1.13;;;8.80;13.80;;;;;;4996820;28;20200;-68
2023/11/10 00:57:54;;;;;;;2.37;1.30;;;8.80;14.00;;;;;;4994987;28;20517;-68
2023/11/10 01:00:20;;;;;;;2.90;1.10;;;8.80;14.00;;;;;;4995170;28;20695;-68
2023/11/10 01:02:49;;;;;;;1.83;0.80;;;8.80;14.00;;;;;;4994728;28;20838;-68
2023/11/10 01:05:19;;;;;;;1.87;1.10;;;8.80;14.00;;;;;;4994846;28;20203;-68
2023/11/10 01:07:45;;;;;;;2.70;1.30;;;8.70;14.20;;;;;;4995113;28;20546;-67
2023/11/10 01:10:12;;;;;;;1.90;1.20;;;8.70;14.80;;;;;;4995253;28;20921;-68
2023/11/10 01:12:39;;;;;;;2.20;1.50;;;8.70;15.40;;;;;;4994951;28;20176;-68
2023/11/10 01:15:05;;;;;;;1.93;0.97;;;8.60;15.60;;;;;;4995079;28;20427;-68
2023/11/10 01:17:31;;;;;;;2.90;1.40;;;8.70;15.80;;;;;;4977436;28;20513;-68
2023/11/10 01:19:58;;;;;;;2.50;1.50;;;8.80;16.00;;;;;;4994604;28;20482;-68
2023/11/10 01:22:26;;;;;;;4.53;2.90;;;8.80;15.30;;;;;;4994233;28;20554;-68
2023/11/10 01:24:52;;;;;;;4.70;2.10;;;8.80;14.70;;;;;;4994577;28;20502;-68
2023/11/10 01:27:18;;;;;;;2.87;1.70;;;8.80;15.20;;;;;;4993492;28;20498;-68
2023/11/10 01:29:45;;;;;;;3.10;1.97;;;8.70;15.30;;;;;;4994911;28;20502;-68
2023/11/10 01:32:12;;;;;;;2.10;0.93;;;8.70;15.00;;;;;;4994471;28;20866;-68
2023/11/10 01:34:38;;;;;;;2.37;1.10;;;8.70;15.20;;;;;;4994937;28;20466;-68
2023/11/10 01:37:05;;;;;;;2.20;1.30;;;8.60;16.20;;;;;;4994779;28;20920;-68
2023/11/10 01:39:31;;;;;;;2.37;1.07;;;8.60;15.70;;;;;;4994645;28;20515;-68
2023/11/10 01:41:57;;;;;;;3.33;1.40;;;8.60;15.50;;;;;;4994994;28;20955;-69
2023/11/10 01:44:23;;;;;;;2.87;1.20;;;8.60;16.00;;;;;;4977419;28;20194;-68
2023/11/10 01:46:49;;;;;;;3.10;1.47;;;8.60;15.10;;;;;;4994565;28;20900;-69
2023/11/10 01:49:18;;;;;;;2.37;1.40;;;8.70;15.30;;;;;;4994690;28;20473;-68
2023/11/10 01:51:44;;;;;;;2.50;1.13;;;8.60;15.40;;;;;;4994162;28;20427;-68
2023/11/10 01:54:15;;;;;;;2.73;1.50;;;8.50;17.00;;;;;;4992172;28;20425;-69
2023/11/10 01:56:42;;;;;;;2.23;1.30;;;8.50;17.30;;;;;;4994624;28;20465;-68
2023/11/10 01:59:12;;;;;;;4.53;2.90;;;8.50;17.00;;;;;;4994155;28;20426;-69
2023/11/10 02:01:38;;;;;;;5.50;3.20;;;8.50;17.40;;;;;;4993032;28;20424;-69
2023/11/10 02:04:04;;;;;;;3.00;1.83;;;8.50;17.70;;;;;;4976976;28;20463;-69
2023/11/10 02:06:31;;;;;;;2.33;1.30;;;8.40;18.10;;;;;;4994287;28;20848;-68
2023/11/10 02:08:59;;;;;;;2.60;1.50;;;8.40;18.10;;;;;;4994513;28;20499;-69
2023/11/10 02:11:31;;;;;;;3.60;2.17;;;8.30;19.30;;;;;;4994057;28;20832;-68
2023/11/10 02:14:07;;;;;;;3.07;1.43;;;8.40;20.10;;;;;;4994415;28;21008;-68
2023/11/10 02:16:34;;;;;;;3.27;1.30;;;8.40;19.50;;;;;;4994305;28;20415;-68
2023/11/10 02:18:59;;;;;;;2.77;1.77;;;8.40;19.50;;;;;;4992689;28;20427;-68
2023/11/10 02:21:25;;;;;;;2.50;1.53;;;8.40;20.30;;;;;;4993895;28;20420;-68
2023/11/10 02:23:57;;;;;;;2.07;1.13;;;8.40;20.30;;;;;;4993933;28;20224;-68
2023/11/10 02:26:23;;;;;;;3.13;1.13;;;8.40;19.30;;;;;;4993808;28;20183;-68
2023/11/10 02:28:48;;;;;;;2.40;1.13;;;8.40;17.40;;;;;;4993633;28;20412;-68
2023/11/10 02:31:16;;;;;;;1.87;0.73;;;8.40;19.10;;;;;;4993159;28;20451;-68
2023/11/10 02:33:41;;;;;;;3.40;1.20;;;8.40;19.30;;;;;;4994148;28;20218;-68
2023/11/10 02:36:08;;;;;;;2.77;1.00;;;8.40;18.30;;;;;;4994192;28;20414;-67
2023/11/10 02:38:34;;;;;;;2.30;1.30;;;8.40;18.70;;;;;;4994572;28;20210;-68
2023/11/10 02:41:00;;;;;;;4.63;1.10;;;8.50;18.80;;;;;;4994157;28;20537;-68
2023/11/10 02:43:26;;;;;;;1.87;1.13;;;8.50;18.10;;;;;;4992529;28;20824;-68
2023/11/10 02:45:51;;;;;;;2.03;0.70;;;8.50;18.10;;;;;;4993792;28;20558;-68
2023/11/10 02:48:17;;;;;;;1.50;0.50;;;8.50;18.10;;;;;;4993012;28;20214;-68
2023/11/10 02:50:44;;;;;;;2.03;0.87;;;8.40;16.40;;;;;;4993221;28;20197;-68
2023/11/10 02:53:09;;;;;;;1.50;0.50;;;8.40;16.30;;;;;;4993737;28;20263;-69
2023/11/10 02:55:35;;;;;;;1.50;0.50;;;8.40;16.10;;;;;;4994187;28;20520;-69
2023/11/10 02:58:00;;;;;;;1.77;0.50;;;8.30;15.50;;;;;;4993619;28;20195;-68
2023/11/10 03:00:26;;;;;;;1.50;0.50;;;8.30;13.70;;;;;;4993519;28;20195;-68
2023/11/10 03:02:52;;;;;;;1.50;0.50;;;8.20;15.30;;;;;;4975526;28;20206;-68
2023/11/10 03:05:17;;;;;;;1.70;0.50;;;8.20;16.40;;;;;;4992972;28;20175;-68
2023/11/10 03:07:43;;;;;;;1.50;0.50;;;8.20;15.30;;;;;;4991859;28;20179;-68
2023/11/10 03:10:09;;;;;;;1.40;0.50;;;8.10;15.40;;;;;;4993160;28;20706;-68
2023/11/10 03:12:35;;;;;;;1.43;0.50;;;8.20;14.30;;;;;;4975497;28;20275;-68
2023/11/10 03:15:01;;;;;;;1.60;0.60;;;8.20;14.50;;;;;;4993442;28;20832;-68
2023/11/10 03:17:29;;;;;;;1.47;0.43;;;8.20;14.10;;;;;;4992638;28;20426;-68
2023/11/10 03:19:55;;;;;;;1.40;0.50;;;8.10;14.50;;;;;;4992762;28;20945;-68
2023/11/10 03:22:21;;;;;;;1.40;0.40;;;8.10;13.30;;;;;;4974973;28;20462;-68
2023/11/10 03:24:46;;;;;;;1.40;0.40;;;8.10;12.10;;;;;;4992688;28;20990;-68
2023/11/10 03:27:14;;;;;;;1.90;0.50;;;8.10;12.40;;;;;;4991183;28;20187;-68
2023/11/10 03:29:39;;;;;;;1.60;0.50;;;8.10;12.00;;;;;;4991103;28;20214;-68
2023/11/10 03:32:06;;;;;;;1.40;0.40;;;8.10;11.30;;;;;;4992076;28;20415;-68
2023/11/10 03:34:32;;;;;;;1.40;0.40;;;8.20;12.50;;;;;;4992251;28;20321;-67
2023/11/10 03:36:57;;;;;;;1.67;0.60;;;8.20;12.10;;;;;;4992393;28;20827;-68
2023/11/10 03:39:24;;;;;;;1.33;0.40;;;8.20;11.80;;;;;;4992208;28;20230;-68
2023/11/10 03:41:49;;;;;;;1.40;0.40;;;8.20;12.60;;;;;;4991896;28;20226;-68
2023/11/10 03:44:15;;;;;;;1.50;0.50;;;8.20;10.80;;;;;;4974939;28;20418;-68
2023/11/10 03:46:41;;;;;;;1.40;0.40;;;8.20;9.90;;;;;;4992381;28;20178;-68
2023/11/10 03:49:07;;;;;;;1.80;0.57;;;8.20;9.60;;;;;;4992194;28;20183;-68
2023/11/10 03:51:33;;;;;;;1.70;0.60;;;8.30;9.30;;;;;;4992116;28;20171;-68
2023/11/10 03:53:58;;;;;;;1.40;0.40;;;8.20;5.60;;;;;;4992277;28;20425;-68
2023/11/10 03:56:24;;;;;;;1.50;0.40;;;8.20;9.00;;;;;;4992346;28;20265;-68
2023/11/10 03:58:49;;;;;;;1.40;0.40;;;8.20;9.30;;;;;;4992131;28;20187;-67
2023/11/10 04:01:15;;;;;;;1.40;0.40;;;8.20;8.90;;;;;;4991938;28;20198;-68
2023/11/10 04:03:43;;;;;;;1.60;0.60;;;8.20;9.30;;;;;;4991977;28;20265;-68
2023/11/10 04:06:09;;;;;;;1.43;0.40;;;8.20;10.30;;;;;;4992068;28;20183;-68
2023/11/10 04:08:34;;;;;;;1.50;0.50;;;8.10;8.90;;;;;;4974877;28;20421;-67
2023/11/10 04:11:01;;;;;;;1.50;0.43;;;8.10;8.10;;;;;;4991850;28;20194;-67
2023/11/10 04:13:27;;;;;;;1.50;0.40;;;8.10;9.20;;;;;;4991985;28;20657;-68
2023/11/10 04:15:52;;;;;;;1.50;0.50;;;8.00;9.50;;;;;;4992008;28;20421;-67
2023/11/10 04:18:18;;;;;;;1.40;0.40;;;8.00;8.60;;;;;;4992641;28;20202;-68
2023/11/10 04:20:44;;;;;;;1.40;0.40;;;8.00;9.20;;;;;;4995648;28;20296;-68
2023/11/10 04:23:10;;;;;;;1.40;0.40;;;7.90;8.80;;;;;;4995564;28;20206;-68
2023/11/10 04:25:36;;;;;;;1.40;0.40;;;8.00;9.10;;;;;;4995631;28;20597;-68
2023/11/10 04:28:02;;;;;;;1.40;0.40;;;7.90;8.50;;;;;;4995790;28;20437;-68
2023/11/10 04:30:28;;;;;;;1.60;0.50;;;7.90;9.10;;;;;;4995308;28;20206;-68
2023/11/10 04:32:54;;;;;;;1.40;0.40;;;7.90;9.10;;;;;;4995319;28;20436;-68
2023/11/10 04:35:20;;;;;;;1.40;0.43;;;7.90;9.10;;;;;;4995751;28;20183;-68
2023/11/10 04:37:46;;;;;;;1.90;0.50;;;8.00;9.20;;;;;;4995433;28;20424;-68
2023/11/10 04:40:12;;;;;;;1.40;0.40;;;8.00;9.10;;;;;;4995230;28;20272;-68
2023/11/10 04:42:39;;;;;;;2.00;0.50;;;8.00;9.90;;;;;;4995030;28;20224;-68
2023/11/10 04:45:05;;;;;;;1.40;0.40;;;8.00;9.40;;;;;;4995272;28;20425;-68
2023/11/10 04:47:30;;;;;;;1.70;0.50;;;8.10;9.20;;;;;;4994001;28;20423;-68
2023/11/10 04:49:56;;;;;;;1.90;0.60;;;8.10;9.20;;;;;;4995123;28;20504;-68
2023/11/10 04:52:22;;;;;;;1.40;0.40;;;8.10;8.60;;;;;;4995531;28;20679;-68
2023/11/10 04:54:48;;;;;;;1.53;0.60;;;7.90;9.10;;;;;;4978062;28;20234;-67
2023/11/10 04:57:13;;;;;;;1.40;0.40;;;8.00;10.40;;;;;;4995758;28;20447;-68
2023/11/10 04:59:39;;;;;;;1.40;0.40;;;8.00;9.60;;;;;;4994689;28;20213;-68
2023/11/10 05:02:08;;;;;;;1.50;0.50;;;7.90;11.30;;;;;;4995421;28;20175;-68
2023/11/10 05:04:39;;;;;;;1.60;0.50;;;7.90;11.40;;;;;;4993767;28;20780;-67
2023/11/10 05:07:07;;;;;;;4.23;0.70;;;7.80;12.50;;;;;;4994898;28;20924;-68
2023/11/10 05:09:33;;;;;;;7.27;2.17;;;7.90;12.10;;;;;;4995029;28;20528;-68
2023/11/10 05:11:58;;;;;;;4.93;2.00;;;7.90;12.30;;;;;;4994780;28;20969;-68
2023/11/10 05:14:24;;;;;;;1.80;0.80;;;8.00;12.20;;;;;;4994899;28;20422;-68
2023/11/10 05:16:50;;;;;;;2.67;0.83;;;8.00;12.30;;;;;;4995213;28;20203;-67
2023/11/10 05:19:17;;;;;;;6.37;3.90;;;8.00;12.80;;;;;;4995014;28;20292;-68
2023/11/10 05:21:43;;;;;;;8.97;4.50;;;7.90;12.00;;;;;;4995262;28;20457;-68
2023/11/10 05:24:12;;;;;;;2.63;0.90;;;7.90;12.50;;;;;;4995455;28;20265;-68
2023/11/10 05:26:38;;;;;;;2.53;1.17;;;8.00;12.60;;;;;;4995846;28;20225;-67
2023/11/10 05:29:03;;;;;;;1.50;0.63;;;7.90;12.90;;;;;;4994055;28;20451;-68
2023/11/10 05:31:29;;;;;;;2.83;1.40;;;7.90;13.50;;;;;;4995137;28;20183;-68
2023/11/10 05:33:55;;;;;;;4.53;2.20;;;7.90;14.40;;;;;;5010719;28;20183;-67
2023/11/10 05:36:21;;;;;;;4.60;2.57;;;7.90;14.20;;;;;;4999466;28;20666;-68
2023/11/10 05:38:48;;;;;;;3.17;1.70;;;7.90;14.00;;;;;;4998751;28;20427;-68
2023/11/10 05:41:14;;;;;;;2.03;0.87;;;8.00;14.40;;;;;;4998544;28;20443;-68
2023/11/10 05:43:40;;;;;;;1.90;1.00;;;8.00;14.20;;;;;;4995999;28;20657;-68
2023/11/10 05:46:05;;;;;;;2.13;0.90;;;7.90;15.60;;;;;;4994747;28;20937;-67
2023/11/10 05:48:31;;;;;;;2.70;1.23;;;7.80;14.30;;;;;;4995063;28;20673;-69
2023/11/10 05:50:57;;;;;;;2.13;0.83;;;7.90;11.00;;;;;;4995930;28;20233;-69
2023/11/10 05:53:22;;;;;;;1.70;0.80;;;7.90;10.80;;;;;;4994521;28;20294;-67
2023/11/10 05:55:50;;;;;;;1.80;0.70;;;7.90;10.80;;;;;;4994660;28;20672;-67
2023/11/10 05:58:16;;;;;;;1.50;0.50;;;7.90;9.10;;;;;;4994163;28;20175;-67
2023/11/10 06:00:42;;;;;;;1.40;0.40;;;7.80;7.00;;;;;;4992533;28;20529;-67
2023/11/10 06:03:09;;;;;;;1.80;0.60;;;7.80;7.40;;;;;;5008820;28;20462;-67
2023/11/10 06:05:35;;;;;;;1.50;0.50;;;7.80;7.00;;;;;;4993714;28;20182;-67
2023/11/10 06:08:01;;;;;;;1.50;0.60;;;7.80;7.20;;;;;;4993725;28;20511;-67
2023/11/10 06:10:26;;;;;;;1.60;0.60;;;7.90;6.90;;;;;;4993464;28;20622;-67
2023/11/10 06:12:52;;;;;;;1.47;0.50;;;7.90;6.50;;;;;;4993616;28;20724;-67
2023/11/10 06:15:19;;;;;;;1.90;0.70;;;8.00;6.80;;;;;;4993613;28;20185;-67
2023/11/10 06:17:44;;;;;;;1.50;0.50;;;7.90;6.20;;;;;;4994075;28;20418;-67
2023/11/10 06:20:11;;;;;;;1.87;0.70;;;8.00;6.50;;;;;;4993400;28;20448;-68
2023/11/10 06:22:37;;;;;;;1.67;0.53;;;8.00;6.30;;;;;;4993380;28;20209;-67
2023/11/10 06:25:04;;;;;;;2.07;0.60;;;8.00;5.60;;;;;;4993619;28;20417;-68
2023/11/10 06:27:30;;;;;;;1.43;0.50;;;8.00;5.10;;;;;;4992325;28;20458;-68
2023/11/10 06:29:56;;;;;;;1.60;0.60;;;8.10;4.70;;;;;;4993786;28;20461;-68
2023/11/10 06:32:22;;;;;;;1.60;0.70;;;8.10;4.80;;;;;;4993433;28;20431;-68
2023/11/10 06:34:48;;;;;;;1.90;0.60;;;8.20;4.80;;;;;;4993172;28;20560;-67
2023/11/10 06:37:15;;;;;;;2.00;0.70;;;8.30;4.40;;;;;;4995149;28;20203;-69
2023/11/10 06:39:41;;;;;;;2.00;0.90;;;8.40;4.20;;;;;;4992226;28;20785;-67
2023/11/10 06:42:06;;;;;;;3.30;1.57;;;8.30;2.50;;;;;;4993137;28;20489;-68
2023/11/10 06:44:32;;;;;;;3.43;1.80;;;8.30;3.20;;;;;;4993041;28;20186;-68
2023/11/10 06:46:59;;;;;;;2.40;1.07;;;8.30;2.90;;;;;;4992959;28;20186;-68
2023/11/10 06:49:25;;;;;;;1.97;0.70;;;8.40;3.40;;;;;;4992907;28;20948;-69
2023/11/10 06:51:51;;;;;;;1.80;0.50;;;8.40;2.10;;;;;;4993132;28;20422;-68
2023/11/10 06:54:17;;;;;;;1.50;0.50;;;8.40;1.00;;;;;;4994230;28;20588;-67
2023/11/10 06:56:42;;;;;;;1.60;0.60;;;8.40;2.90;;;;;;4992313;28;20431;-67
2023/11/10 06:59:08;;;;;;;1.50;0.60;;;8.40;2.70;;;;;;4993998;28;20180;-67
2023/11/10 07:01:33;;;;;;;1.60;0.80;;;8.50;2.60;;;;;;4993897;28;20188;-68
2023/11/10 07:03:59;;;;;;;1.70;0.70;;;8.50;2.30;;;;;;4993872;28;20203;-67
2023/11/10 07:06:25;;;;;;;1.60;0.60;;;8.50;1.30;;;;;;4994159;28;20652;-67
2023/11/10 07:08:50;;;;;;;1.60;0.70;;;8.60;1.00;;;;;;4992725;28;20183;-67
2023/11/10 07:11:16;;;;;;;1.50;0.50;;;8.60;1.00;;;;;;4994100;28;20206;-67
2023/11/10 07:13:42;;;;;;;1.50;0.60;;;8.60;1.00;;;;;;4994505;28;20180;-68
2023/11/10 07:16:07;;;;;;;1.50;0.50;;;8.60;1.00;;;;;;4997284;28;20206;-69
2023/11/10 07:18:33;;;;;;;1.70;0.70;;;8.60;1.00;;;;;;4995962;28;20588;-68
2023/11/10 07:20:59;;;;;;;1.50;0.47;;;8.60;1.30;;;;;;4995449;28;20219;-68
2023/11/10 07:23:25;;;;;;;1.50;0.57;;;8.60;1.20;;;;;;4995595;28;20646;-68
2023/11/10 07:25:50;;;;;;;1.40;0.40;;;8.60;2.00;;;;;;4994070;28;20423;-68
2023/11/10 07:28:16;;;;;;;1.50;0.40;;;8.60;2.30;;;;;;4994530;28;20188;-68
2023/11/10 07:30:43;;;;;;;1.93;0.60;;;8.60;1.70;;;;;;4994531;28;20454;-68
2023/11/10 07:33:09;;;;;;;1.93;0.67;;;8.60;2.50;;;;;;4993566;28;20218;-68
2023/11/10 07:35:36;;;;;;;1.40;0.40;;;8.60;2.40;;;;;;4995062;28;20418;-68
2023/11/10 07:38:01;;;;;;;1.90;0.63;;;8.60;2.20;;;;;;4994568;28;20518;-68
2023/11/10 07:40:27;;;;;;;2.00;0.80;;;8.80;2.90;;;;;;4993917;28;20528;-69
2023/11/10 07:42:52;;;;;;;2.23;0.70;;;8.90;2.20;;;;;;4993064;28;20214;-69
2023/11/10 07:45:18;;;;;;;1.80;0.70;;;9.00;1.10;;;;;;4993061;28;20183;-68
2023/11/10 07:47:45;;;;;;;1.80;0.80;;;9.10;1.00;;;;;;4992993;28;20576;-68
2023/11/10 07:50:13;;;;;;;1.60;0.70;;;9.40;1.00;;;;;;4993118;28;20869;-66
2023/11/10 07:52:39;;;;;;;1.53;0.50;;;9.50;1.00;;;;;;4995986;28;20481;-66
2023/11/10 07:55:06;;;;;;;1.50;0.50;;;9.60;1.00;;;;;;4997361;28;20856;-67
2023/11/10 07:57:32;;;;;;;2.57;0.67;;;9.50;1.00;;;;;;4997203;28;20423;-67
2023/11/10 07:59:59;;;;;;;2.83;0.67;;;9.50;1.00;;;;;;4996924;28;20489;-67
2023/11/10 08:02:25;;;;;;;1.60;0.60;;;9.40;1.00;;;;;;4996890;28;20455;-67
2023/11/10 08:04:50;;;;;;;2.03;0.67;;;9.40;1.00;;;;;;4992755;28;20440;-67
2023/11/10 08:07:16;;;;;;;1.90;0.73;;;9.40;1.00;;;;;;4997347;28;20184;-67
2023/11/10 08:09:41;;;;;;;1.80;0.57;;;9.40;1.00;;;;;;4997150;28;20238;-67
2023/11/10 08:12:07;;;;;;;1.60;0.60;;;9.50;1.00;;;;;;4979789;28;20212;-67
2023/11/10 08:14:33;;;;;;;1.80;0.60;;;9.40;1.00;;;;;;4997609;28;20192;-71
2023/11/10 08:16:58;;;;;;;1.90;0.60;;;9.30;1.00;;;;;;4997226;28;20266;-69
2023/11/10 08:19:24;;;;;;;1.63;0.63;;;9.30;1.00;;;;;;4995025;28;20240;-70
2023/11/10 08:21:50;;;;;;;1.50;0.50;;;9.40;1.00;;;;;;4994836;28;20187;-68
2023/11/10 08:24:16;;;;;;;1.93;0.60;;;9.40;1.00;;;;;;4998144;28;20273;-68
2023/11/10 08:26:42;;;;;;;1.70;0.57;;;9.50;1.00;;;;;;4977914;28;20431;-68
2023/11/10 08:29:09;;;;;;;1.53;0.60;;;9.60;1.00;;;;;;4995111;28;20275;-70
2023/11/10 08:31:35;;;;;;;1.47;0.50;;;9.80;1.00;;;;;;4995090;28;20570;-70
2023/11/10 08:34:01;;;;;;;1.50;0.50;;;9.70;1.00;;;;;;4977446;28;20467;-70
2023/11/10 08:36:28;;;;;;;1.53;0.60;;;9.80;1.00;;;;;;4995252;28;20910;-70
2023/11/10 08:38:57;;;;;;;1.53;0.60;;;9.80;1.00;;;;;;4995197;28;20176;-71
2023/11/10 08:41:23;;;;;;;1.90;0.70;;;10.10;1.00;;;;;;4994685;28;20453;-70
2023/11/10 08:43:49;;;;;;;1.60;0.60;;;10.30;1.00;;;;;;4994791;28;20952;-70
2023/11/10 08:46:15;;;;;;;1.70;0.77;;;10.30;1.00;;;;;;4976861;28;20191;-70
2023/11/10 08:48:42;;;;;;;1.77;0.90;;;10.30;1.00;;;;;;4994724;28;20554;-70
2023/11/10 08:51:08;;;;;;;2.10;1.07;;;10.40;1.00;;;;;;4976136;28;20469;-70
2023/11/10 08:53:33;;;;;;;1.50;0.50;;;10.20;1.00;;;;;;4994049;28;20518;-70
2023/11/10 08:55:59;;;;;;;3.93;0.80;;;10.20;1.00;;;;;;4994745;28;20188;-70
2023/11/10 08:58:24;;;;;;;2.53;0.70;;;10.10;1.00;;;;;;4995119;28;20188;-70
2023/11/10 09:00:51;;;;;;;2.00;0.90;;;10.10;1.00;;;;;;4991721;28;20212;-70
2023/11/10 09:03:17;;;;;;;1.73;0.70;;;10.20;1.00;;;;;;4993616;28;20588;-70
2023/11/10 09:05:43;;;;;;;1.60;0.63;;;10.20;1.00;;;;;;4993652;28;20416;-70
2023/11/10 09:08:08;;;;;;;1.90;1.00;;;10.50;1.00;;;;;;4994581;28;20274;-70
2023/11/10 09:10:34;;;;;;;2.20;0.70;;;10.70;1.00;;;;;;4994521;28;20197;-70
2023/11/10 09:13:00;;;;;;;1.50;0.60;;;10.70;1.00;;;;;;4971159;28;20197;-70
2023/11/10 09:15:26;;;;;;;2.57;0.70;;;10.70;1.00;;;;;;4994638;28;20795;-70
2023/11/10 09:17:52;;;;;;;1.60;0.63;;;10.70;1.00;;;;;;4994669;28;20419;-70
2023/11/10 09:20:18;;;;;;;1.50;0.60;;;10.90;1.00;;;;;;4994433;28;20739;-70
2023/11/10 09:22:43;;;;;;;2.77;1.80;;;10.80;1.00;;;;;;4993649;28;20456;-70
2023/11/10 09:25:13;;;;;;;2.00;0.77;;;10.90;1.00;;;;;;4994247;28;20190;-70
2023/11/10 09:27:39;;;;;;;2.43;0.80;;;11.00;1.00;;;;;;4991779;28;20552;-70
2023/11/10 09:30:07;;;;;;;2.23;0.90;;;11.00;1.00;;;;;;5027703;23;20504;-67
2023/11/10 09:32:33;;;;;;;1.70;0.80;;;11.00;1.00;;;;;;5029395;28;20545;-67
2023/11/10 09:34:58;;;;;;;2.00;1.10;;;10.80;1.00;;;;;;5029302;28;20509;-67
2023/11/10 09:37:24;;;;;;;1.93;0.80;;;11.00;1.00;;;;;;5030279;28;20179;-70
2023/11/10 09:39:50;;;;;;;1.80;0.83;;;11.20;1.00;;;;;;5025571;28;20261;-70
2023/11/10 09:42:16;;;;;;;1.60;0.77;;;11.00;1.00;;;;;;5009206;28;20620;-71
2023/11/10 09:45:01;;;;;;;1.97;0.87;;;10.50;1.00;;;;;;5010149;28;20426;-69
2023/11/10 09:47:27;;;;;;;3.43;0.70;;;10.50;1.00;;;;;;5009808;28;20787;-67
2023/11/10 09:49:53;;;;;;;1.60;0.70;;;10.60;1.00;;;;;;5009564;28;20461;-67
2023/11/10 09:52:20;;;;;;;1.50;0.70;;;10.50;1.00;;;;;;5008856;28;20192;-67
2023/11/10 09:54:51;;;;;;;1.80;0.70;;;10.50;1.00;;;;;;5009296;28;20431;-67
2023/11/10 09:57:17;;;;;;;1.50;0.53;;;10.40;1.00;;;;;;5007911;28;20462;-69
2023/11/10 09:59:44;;;;;;;1.73;0.63;;;10.40;1.00;;;;;;4974819;28;20882;-69
2023/11/10 10:02:13;;;;;;;2.23;0.70;;;10.30;1.00;;;;;;4987810;28;20461;-67
2023/11/10 10:04:41;;;;;;;2.50;0.70;;;10.10;1.00;;;;;;4989948;28;20773;-67
2023/11/10 10:07:11;;;;;;;2.27;1.20;;;10.20;1.00;;;;;;4989811;28;20428;-67
2023/11/10 10:09:37;;;;;;;1.70;0.70;;;10.00;1.00;;;;;;4989110;28;20438;-68
2023/11/10 10:12:03;;;;;;;2.40;1.27;;;9.90;1.00;;;;;;4988892;28;20460;-67
2023/11/10 10:14:28;;;;;;;1.70;0.77;;;9.80;1.00;;;;;;4989572;28;20430;-68
2023/11/10 10:16:55;;;;;;;1.43;0.40;;;9.90;1.00;;;;;;4988404;28;20190;-67
2023/11/10 10:19:27;;;;;;;1.67;0.87;;;9.90;1.00;;;;;;4972674;28;20682;-68
2023/11/10 10:21:52;;;;;;;1.70;0.60;;;9.90;1.00;;;;;;4992834;28;20434;-67
2023/11/10 10:24:19;;;;;;;1.63;0.70;;;9.80;1.00;;;;;;4992983;28;20471;-67
2023/11/10 10:26:45;;;;;;;1.83;0.67;;;9.50;1.10;;;;;;4992939;28;20264;-68
2023/11/10 10:29:12;;;;;;;1.67;0.73;;;9.40;1.00;;;;;;4992954;28;20751;-68
2023/11/10 10:31:40;;;;;;;3.20;0.70;;;9.50;1.00;;;;;;4992587;28;20502;-68
2023/11/10 10:34:06;;;;;;;1.50;0.40;;;9.60;1.90;;;;;;4993015;28;20415;-67
2023/11/10 10:36:38;;;;;;;1.50;0.60;;;9.60;1.10;;;;;;4992778;28;20928;-67
2023/11/10 10:39:15;;;;;;;4.23;0.93;;;9.50;1.70;;;;;;4992040;28;20522;-67
2023/11/10 10:41:46;;;;;;;2.00;0.70;;;9.60;2.50;;;;;;5010760;28;20441;-74
2023/11/10 10:44:13;;;;;;;3.60;1.47;;;9.30;4.20;;;;;;5012378;28;20470;-68
2023/11/10 10:46:38;;;;;;;2.20;1.03;;;9.40;5.30;;;;;;4994778;28;20505;-68
2023/11/10 10:49:06;;;;;;;1.80;0.60;;;9.40;7.50;;;;;;5011939;28;20531;-68
2023/11/10 10:51:36;;;;;;;2.57;1.30;;;9.60;7.60;;;;;;5012126;28;20795;-67
2023/11/10 10:54:04;;;;;;;2.23;0.80;;;9.60;5.70;;;;;;5012229;28;20501;-68
2023/11/10 10:56:37;;;;;;;5.10;2.10;;;9.80;5.70;;;;;;5012218;28;20822;-68
2023/11/10 10:59:06;;;;;;;1.60;0.60;;;9.80;4.50;;;;;;5012407;28;20423;-67
2023/11/10 11:01:36;;;;;;;2.10;1.30;;;9.60;6.40;;;;;;5011869;28;20476;-67
2023/11/10 11:04:28;;;;;;;1.83;0.77;;;9.60;6.60;;;;;;5011881;28;20477;-68
2023/11/10 11:07:19;;;;;;;1.60;0.60;;;9.40;5.60;;;;;;5012179;28;20919;-67
2023/11/10 11:10:21;;;;;;;2.00;0.97;;;9.10;7.60;;;;;;5011663;28;20449;-68
2023/11/10 11:13:14;;;;;;;1.80;0.70;;;9.00;9.80;;;;;;4994011;28;20426;-69
2023/11/10 11:16:04;;;;;;;1.60;0.77;;;9.20;9.90;;;;;;5012046;28;20422;-67
2023/11/10 11:18:50;;;;;;;1.80;0.90;;;9.20;9.00;;;;;;5011848;28;20415;-68
2023/11/10 11:21:17;;;;;;;1.50;0.70;;;9.30;8.30;;;;;;5011561;28;20445;-68
2023/11/10 11:23:42;;;;;;;2.00;0.77;;;9.20;7.60;;;;;;5011586;28;20992;-68
2023/11/10 11:26:08;;;;;;;2.10;0.90;;;9.10;6.20;;;;;;5011506;28;20422;-68
2023/11/10 11:28:36;;;;;;;1.80;0.70;;;9.40;8.00;;;;;;5011742;28;20176;-68
2023/11/10 11:31:10;;;;;;;2.17;0.80;;;9.60;7.40;;;;;;5011302;28;20215;-68
2023/11/10 11:33:48;;;;;;;1.80;0.73;;;9.90;4.70;;;;;;5011639;28;20424;-68
2023/11/10 11:36:16;;;;;;;1.90;0.80;;;10.10;2.30;;;;;;5011793;28;20480;-68
2023/11/10 11:38:42;;;;;;;1.50;0.60;;;10.10;1.30;;;;;;5011367;28;20438;-68
2023/11/10 11:41:08;;;;;;;1.60;0.60;;;10.00;2.30;;;;;;5011685;28;20986;-69
2023/11/10 11:43:34;;;;;;;2.00;0.90;;;9.90;2.80;;;;;;5011457;28;20548;-67
2023/11/10 11:46:05;;;;;;;2.87;0.90;;;10.00;2.10;;;;;;5011588;28;20429;-67
2023/11/10 11:48:35;;;;;;;2.60;0.80;;;10.00;1.30;;;;;;5011341;28;20550;-67
2023/11/10 11:51:02;;;;;;;1.70;0.80;;;10.10;1.00;;;;;;5011449;28;20446;-68
2023/11/10 11:53:28;;;;;;;3.20;0.93;;;10.10;1.00;;;;;;5011259;28;20455;-67
2023/11/10 11:55:57;;;;;;;2.80;0.90;;;10.30;1.00;;;;;;5011466;28;20454;-67
2023/11/10 11:58:25;;;;;;;2.10;0.90;;;10.50;1.00;;;;;;5011325;28;20223;-68
2023/11/10 12:00:51;;;;;;;2.03;0.83;;;10.70;1.00;;;;;;5011208;28;20439;-68
2023/11/10 12:03:16;;;;;;;3.20;0.80;;;10.90;1.00;;;;;;5011020;28;20551;-67
2023/11/10 12:05:45;;;;;;;1.70;0.80;;;11.10;1.00;;;;;;5011534;28;20176;-67
2023/11/10 12:08:11;;;;;;;1.67;0.90;;;11.20;1.00;;;;;;5011280;28;20655;-67
2023/11/10 12:10:38;;;;;;;1.60;0.63;;;11.10;1.00;;;;;;5011244;28;20450;-67
2023/11/10 12:13:06;;;;;;;1.50;0.60;;;10.70;1.00;;;;;;4993716;28;20437;-67
2023/11/10 12:15:32;;;;;;;1.90;0.70;;;10.50;1.00;;;;;;5011443;28;20426;-67
2023/11/10 12:17:58;;;;;;;2.67;1.33;;;10.30;1.00;;;;;;5011252;28;20436;-68
2023/11/10 12:20:24;;;;;;;1.73;0.57;;;10.20;1.00;;;;;;5010748;28;20450;-67
2023/11/10 12:22:54;;;;;;;1.90;0.80;;;10.30;1.00;;;;;;5009728;28;20204;-67
2023/11/10 12:25:26;;;;;;;1.50;0.50;;;10.40;1.00;;;;;;5011164;28;20481;-67
2023/11/10 12:27:55;;;;;;;1.60;0.70;;;10.30;1.00;;;;;;5011204;28;20426;-68
2023/11/10 12:30:22;;;;;;;1.67;0.53;;;10.20;1.60;;;;;;5010739;28;20458;-67
2023/11/10 12:32:48;;;;;;;1.50;0.50;;;10.20;2.10;;;;;;5010964;28;20955;-67
2023/11/10 12:35:15;;;;;;;1.50;0.50;;;10.40;2.20;;;;;;5011159;28;20410;-67
2023/11/10 12:37:41;;;;;;;1.47;0.50;;;10.40;1.00;;;;;;5011017;28;20423;-67
2023/11/10 12:40:11;;;;;;;1.87;0.60;;;10.60;1.00;;;;;;5013907;28;20450;-72
2023/11/10 12:42:39;;;;;;;2.63;1.10;;;10.40;1.00;;;;;;5014533;28;20458;-68
2023/11/10 12:45:12;;;;;;;1.50;0.50;;;10.20;1.00;;;;;;4995814;28;20433;-68
2023/11/10 12:47:42;;;;;;;2.07;0.50;;;10.10;1.00;;;;;;5021029;28;20928;-68
2023/11/10 12:50:13;;;;;;;1.70;0.83;;;9.90;1.00;;;;;;5017933;28;20439;-68
2023/11/10 12:52:39;;;;;;;1.70;0.80;;;10.00;1.00;;;;;;5031397;28;20934;-68
2023/11/10 12:55:05;;;;;;;2.30;1.30;;;10.20;1.00;;;;;;5034372;28;20425;-68
2023/11/10 12:57:32;;;;;;;2.80;0.70;;;10.30;1.00;;;;;;5024069;28;20839;-68
2023/11/10 13:00:12;;;;;;;1.73;0.77;;;10.20;1.00;;;;;;5014292;28;20443;-67
2023/11/10 13:02:39;;;;;;;2.33;0.87;;;10.30;1.00;;;;;;5014089;28;20863;-68